createdAt,value
2022-11-15T00:00:35.524Z,18.08
2022-11-15T00:03:09.232Z,16.38
2022-11-15T00:05:43.251Z,19.25
2022-11-15T00:08:10.968Z,21.20
2022-11-15T00:10:38.461Z,16.88
2022-11-15T00:13:21.374Z,17.40
2022-11-15T00:15:48.160Z,15.95
2022-11-15T00:18:22.281Z,19.85
2022-11-15T00:20:48.999Z,15.48
2022-11-15T00:23:15.774Z,19.52
2022-11-15T00:25:49.260Z,17.88
2022-11-15T00:28:16.104Z,19.17
2022-11-15T00:30:49.298Z,16.83
2022-11-15T00:33:22.311Z,18.42
2022-11-15T00:35:49.197Z,14.27
2022-11-15T00:38:22.321Z,16.58
2022-11-15T00:40:49.330Z,13.75
2022-11-15T00:43:24.387Z,12.38
2022-11-15T00:45:57.344Z,15.55
2022-11-15T00:48:24.777Z,11.75
2022-11-15T00:50:58.303Z,16.17
2022-11-15T00:53:25.351Z,19.63
2022-11-15T00:55:58.407Z,15.93
2022-11-15T00:58:25.566Z,17.15
2022-11-15T01:00:59.523Z,18.67
2022-11-15T01:03:33.651Z,21.58
2022-11-15T01:06:01.428Z,20.58
2022-11-15T01:08:34.346Z,17.80
2022-11-15T01:11:06.894Z,15.20
2022-11-15T01:13:42.377Z,17.38
2022-11-15T01:16:24.444Z,22.48
2022-11-15T01:18:51.803Z,18.70
2022-11-15T01:21:20.331Z,18.25
2022-11-15T01:23:53.373Z,17.02
2022-11-15T01:26:26.426Z,18.02
2022-11-15T01:28:53.761Z,18.58
2022-11-15T01:31:28.382Z,18.60
2022-11-15T01:33:55.173Z,17.17
2022-11-15T01:36:29.381Z,19.42
2022-11-15T01:38:58.152Z,19.40
2022-11-15T01:41:39.401Z,24.48
2022-11-15T01:44:43.426Z,19.08
2022-11-15T01:47:38.396Z,18.50
2022-11-15T01:50:17.502Z,20.10
2022-11-15T01:52:44.516Z,19.42
2022-11-15T01:55:27.442Z,18.40
2022-11-15T01:58:01.810Z,18.23
2022-11-15T02:00:37.500Z,20.08
2022-11-15T02:03:04.394Z,18.92
2022-11-15T02:05:32.566Z,17.27
2022-11-15T02:08:07.436Z,18.95
2022-11-15T02:10:34.303Z,18.13
2022-11-15T02:13:10.487Z,18.27
2022-11-15T02:15:45.916Z,19.45
2022-11-15T02:18:27.479Z,19.92
2022-11-15T02:21:10.157Z,19.38
2022-11-15T02:23:59.513Z,16.92
2022-11-15T02:27:15.457Z,18.63
2022-11-15T02:30:27.491Z,19.45
2022-11-15T02:33:11.372Z,24.25
2022-11-15T02:35:53.555Z,25.27
2022-11-15T02:38:58.541Z,27.00
2022-11-15T02:41:47.457Z,24.92
2022-11-15T02:44:38.563Z,23.92
2022-11-15T02:47:21.498Z,21.17
2022-11-15T02:49:58.506Z,24.73
2022-11-15T02:52:33.509Z,21.08
2022-11-15T02:55:02.021Z,21.70
2022-11-15T02:57:58.519Z,25.08
2022-11-15T03:00:25.383Z,22.27
2022-11-15T03:03:40.530Z,20.70
2022-11-15T03:06:13.964Z,23.92
2022-11-15T03:08:56.556Z,23.25
2022-11-15T03:14:10.523Z,26.33
2022-11-15T03:16:54.894Z,22.80
2022-11-15T03:19:41.558Z,24.48
2022-11-15T03:22:19.548Z,25.08
2022-11-15T03:24:57.641Z,23.50
2022-11-15T03:27:38.603Z,24.85
2022-11-15T03:30:08.270Z,23.70
2022-11-15T03:32:49.576Z,22.15
2022-11-15T03:35:27.605Z,26.08
2022-11-15T03:38:12.934Z,23.17
2022-11-15T03:40:55.632Z,23.77
2022-11-15T03:43:42.234Z,21.45
2022-11-15T03:46:21.592Z,22.60
2022-11-15T03:49:00.599Z,20.23
2022-11-15T03:51:27.373Z,23.10
2022-11-15T03:54:00.663Z,19.55
2022-11-15T03:56:27.461Z,21.25
2022-11-15T03:58:54.593Z,20.13
2022-11-15T04:01:28.647Z,19.83
2022-11-15T04:03:55.416Z,21.00
2022-11-15T04:06:22.209Z,18.27
2022-11-15T04:08:55.624Z,17.27
2022-11-15T04:11:22.432Z,19.30
2022-11-15T04:13:49.289Z,22.17
2022-11-15T04:16:22.636Z,16.65
2022-11-15T04:19:09.328Z,14.60
2022-11-15T04:22:07.683Z,17.15
2022-11-15T04:24:40.672Z,17.42
2022-11-15T04:27:20.666Z,14.43
2022-11-15T04:29:47.463Z,15.20
2022-11-15T04:32:20.663Z,13.57
2022-11-15T04:34:47.448Z,12.82
2022-11-15T04:37:21.701Z,17.95
2022-11-15T04:39:48.508Z,13.77
2022-11-15T04:42:21.709Z,11.55
2022-11-15T04:44:54.637Z,13.35
2022-11-15T04:47:28.703Z,12.43
2022-11-15T04:49:55.468Z,12.00
2022-11-15T04:52:22.425Z,10.77
2022-11-15T04:54:55.685Z,14.40
2022-11-15T04:57:22.741Z,14.20
2022-11-15T04:59:55.694Z,12.60
2022-11-15T05:02:22.434Z,17.45
2022-11-15T05:04:55.688Z,15.85
2022-11-15T05:07:29.886Z,16.38
2022-11-15T05:09:56.915Z,13.63
2022-11-15T05:12:23.684Z,16.73
2022-11-15T05:14:56.742Z,17.38
2022-11-15T05:17:32.745Z,18.58
2022-11-15T05:19:59.752Z,16.58
2022-11-15T05:22:26.935Z,18.30
2022-11-15T05:25:00.707Z,17.15
2022-11-15T05:27:27.508Z,18.52
2022-11-15T05:30:00.780Z,17.00
2022-11-15T05:32:34.765Z,13.70
2022-11-15T05:35:01.671Z,13.50
2022-11-15T05:37:29.898Z,18.23
2022-11-15T05:40:03.751Z,14.55
2022-11-15T05:42:37.791Z,18.65
2022-11-15T05:45:15.747Z,15.82
2022-11-15T05:47:49.832Z,16.40
2022-11-15T05:50:25.760Z,14.77
2022-11-15T05:53:05.279Z,16.70
2022-11-15T05:55:32.992Z,18.10
2022-11-15T05:58:07.774Z,18.88
2022-11-15T06:00:34.798Z,18.58
2022-11-15T06:03:07.779Z,18.25
2022-11-15T06:05:40.835Z,18.63
2022-11-15T06:08:13.855Z,17.42
2022-11-15T06:10:46.794Z,17.58
2022-11-15T06:13:13.684Z,15.65
2022-11-15T06:15:46.834Z,16.63
2022-11-15T06:18:13.603Z,15.77
2022-11-15T06:20:40.447Z,15.15
2022-11-15T06:23:13.865Z,13.98
2022-11-15T06:25:46.874Z,16.15
2022-11-15T06:28:19.972Z,16.33
2022-11-15T06:30:50.507Z,17.23
2022-11-15T06:33:26.866Z,16.13
2022-11-15T06:35:59.808Z,19.52
2022-11-15T06:38:28.109Z,21.55
2022-11-15T06:41:01.841Z,19.05
2022-11-15T06:43:35.829Z,18.83
2022-11-15T06:46:10.855Z,17.13
2022-11-15T06:48:37.646Z,16.13
2022-11-15T06:51:12.901Z,18.45
2022-11-15T06:53:39.731Z,15.60
2022-11-15T06:56:08.156Z,16.42
2022-11-15T06:58:42.901Z,15.93
2022-11-15T07:01:12.025Z,15.43
2022-11-15T07:03:41.400Z,14.23
2022-11-15T07:06:17.898Z,12.35
2022-11-15T07:08:50.901Z,14.93
2022-11-15T07:11:23.905Z,12.50
2022-11-15T07:13:50.760Z,14.60
2022-11-15T07:16:17.575Z,13.73
2022-11-15T07:18:50.953Z,14.43
2022-11-15T07:21:17.734Z,13.85
2022-11-15T07:23:51.921Z,16.63
2022-11-15T07:26:25.068Z,14.38
2022-11-15T07:28:51.923Z,15.18
2022-11-15T07:31:18.730Z,14.52
2022-11-15T07:33:51.908Z,14.10
2022-11-15T07:36:18.676Z,13.02
2022-11-15T07:38:52.058Z,12.93
2022-11-15T07:41:18.797Z,11.32
2022-11-15T07:43:51.973Z,10.75
2022-11-15T07:46:18.803Z,14.18
2022-11-15T07:48:51.970Z,13.25
2022-11-15T07:51:18.753Z,14.88
2022-11-15T07:53:51.965Z,13.13
2022-11-15T07:56:18.932Z,13.02
2022-11-15T07:58:47.091Z,13.75
2022-11-15T08:01:21.197Z,11.20
2022-11-15T08:03:48.094Z,12.68
2022-11-15T08:06:14.919Z,12.00
2022-11-15T08:08:48.033Z,12.30
2022-11-15T08:11:14.940Z,10.45
2022-11-15T08:13:41.761Z,11.45
2022-11-15T08:16:16.057Z,12.25
2022-11-15T08:18:49.038Z,13.52
2022-11-15T08:21:27.008Z,12.32
2022-11-15T08:23:53.822Z,12.73
2022-11-15T08:26:27.046Z,10.80
2022-11-15T08:29:00.086Z,10.73
2022-11-15T08:31:26.966Z,10.43
2022-11-15T08:34:00.033Z,9.15
2022-11-15T08:36:43.032Z,10.15
2022-11-15T08:39:15.799Z,10.52
2022-11-15T08:41:49.074Z,10.50
2022-11-15T08:44:16.060Z,10.25
2022-11-15T08:46:49.038Z,9.00
2022-11-15T08:49:15.886Z,10.18
2022-11-15T08:51:49.129Z,10.48
2022-11-15T08:54:22.199Z,10.57
2022-11-15T08:56:49.434Z,10.10
2022-11-15T08:59:16.420Z,9.50
2022-11-15T09:01:50.213Z,9.15
2022-11-15T09:04:17.101Z,10.57
2022-11-15T09:06:43.989Z,9.20
2022-11-15T09:09:17.158Z,10.18
2022-11-15T09:11:44.056Z,10.13
2022-11-15T09:14:21.108Z,8.57
2022-11-15T09:16:47.911Z,9.45
2022-11-15T09:19:15.752Z,9.90
2022-11-15T09:21:49.182Z,8.65
2022-11-15T09:24:15.979Z,8.93
2022-11-15T09:26:49.163Z,7.70
2022-11-15T09:29:22.147Z,9.70
2022-11-15T09:31:55.140Z,8.65
2022-11-15T09:34:22.050Z,8.85
2022-11-15T09:36:55.117Z,9.27
2022-11-15T09:39:21.917Z,9.43
2022-11-15T09:42:05.211Z,10.27
2022-11-15T09:44:48.624Z,9.15
2022-11-15T09:47:37.154Z,8.60
2022-11-15T09:50:18.195Z,7.68
2022-11-15T09:52:46.639Z,8.95
2022-11-15T09:55:29.184Z,8.73
2022-11-15T09:58:05.356Z,8.05
2022-11-15T10:00:50.269Z,7.38
2022-11-15T10:03:38.249Z,7.55
2022-11-15T10:06:14.204Z,7.10
2022-11-15T10:09:14.210Z,7.43
2022-11-15T10:11:41.830Z,6.97
2022-11-15T10:14:35.219Z,6.28
2022-11-15T10:17:58.316Z,6.22
2022-11-15T10:20:28.205Z,5.60
2022-11-15T10:23:09.210Z,5.53
2022-11-15T10:25:36.559Z,6.70
2022-11-15T10:28:33.605Z,6.32
2022-11-15T10:31:10.117Z,5.22
2022-11-15T10:33:47.227Z,5.82
2022-11-15T10:36:13.947Z,5.35
2022-11-15T10:38:56.267Z,5.00
2022-11-15T10:41:32.860Z,5.57
2022-11-15T10:44:26.256Z,5.85
2022-11-15T10:46:56.209Z,4.45
2022-11-15T10:49:32.259Z,4.57
2022-11-15T10:52:19.295Z,3.67
2022-11-15T10:55:01.320Z,4.60
2022-11-15T10:57:31.799Z,4.10
2022-11-15T11:00:07.267Z,3.70
2022-11-15T11:03:03.316Z,3.85
2022-11-15T11:05:45.281Z,3.90
2022-11-15T11:08:18.333Z,3.50
2022-11-15T11:11:03.409Z,3.70
2022-11-15T11:13:41.308Z,3.67
2022-11-15T11:16:39.044Z,2.97
2022-11-15T11:19:18.302Z,3.50
2022-11-15T11:22:18.033Z,2.75
2022-11-15T11:25:00.575Z,2.60
2022-11-15T11:27:36.574Z,2.05
2022-11-15T11:30:45.312Z,1.88
2022-11-15T11:33:19.672Z,2.10
2022-11-15T11:36:02.327Z,1.88
2022-11-15T11:38:57.354Z,2.00
2022-11-15T11:41:42.362Z,1.15
2022-11-15T11:44:33.167Z,1.60
2022-11-15T11:47:19.393Z,1.45
2022-11-15T11:49:55.179Z,1.40
2022-11-15T11:53:05.393Z,1.70
2022-11-15T11:55:43.843Z,2.15
2022-11-15T11:58:27.385Z,1.77
2022-11-15T12:01:00.512Z,1.40
2022-11-15T12:03:53.384Z,1.35
2022-11-15T12:06:32.440Z,1.40
2022-11-15T12:09:37.393Z,1.48
2022-11-15T12:12:19.594Z,1.40
2022-11-15T12:15:18.365Z,1.65
2022-11-15T12:17:53.401Z,1.20
2022-11-15T12:20:36.037Z,1.02
2022-11-15T12:26:17.748Z,1.20
2022-11-15T12:29:08.087Z,1.30
2022-11-15T12:31:35.683Z,1.42
2022-11-15T12:34:30.495Z,1.70
2022-11-15T12:36:57.433Z,0.95
2022-11-15T12:40:09.449Z,0.73
2022-11-15T12:43:03.690Z,1.40
2022-11-15T12:45:46.426Z,0.80
2022-11-15T12:48:19.174Z,0.95
2022-11-15T12:50:59.478Z,1.00
2022-11-15T12:53:26.362Z,0.90
2022-11-15T12:56:12.459Z,0.60
2022-11-15T12:58:49.466Z,0.90
2022-11-15T13:01:38.520Z,0.90
2022-11-15T13:04:20.877Z,1.33
2022-11-15T13:07:15.489Z,0.80
2022-11-15T13:09:52.409Z,0.75
2022-11-15T13:12:34.460Z,1.20
2022-11-15T13:15:22.933Z,0.70
2022-11-15T13:18:03.475Z,0.82
2022-11-15T13:20:38.480Z,0.98
2022-11-15T13:23:17.552Z,0.88
2022-11-15T13:25:59.193Z,1.08
2022-11-15T13:28:51.512Z,0.60
2022-11-15T13:31:45.515Z,0.60
2022-11-15T13:34:54.636Z,0.75
2022-11-15T13:37:27.482Z,1.00
2022-11-15T13:40:01.499Z,1.00
2022-11-15T13:42:29.862Z,1.33
2022-11-15T13:44:59.633Z,1.10
2022-11-15T13:47:35.516Z,0.80
2022-11-15T13:50:12.241Z,1.25
2022-11-15T13:52:50.643Z,0.80
2022-11-15T13:55:46.554Z,1.05
2022-11-15T13:58:24.133Z,1.10
2022-11-15T14:01:07.538Z,0.90
2022-11-15T14:03:47.445Z,0.98
2022-11-15T14:06:24.556Z,1.20
2022-11-15T14:09:16.627Z,1.40
2022-11-15T14:12:01.578Z,1.30
2022-11-15T14:14:30.064Z,1.30
2022-11-15T14:17:06.529Z,1.17
2022-11-15T14:19:33.264Z,1.40
2022-11-15T14:22:36.594Z,1.20
2022-11-15T14:25:25.572Z,1.35
2022-11-15T14:28:19.571Z,1.20
2022-11-15T14:30:57.682Z,1.83
2022-11-15T14:33:36.466Z,1.30
2022-11-15T14:36:24.625Z,1.20
2022-11-15T14:38:57.577Z,1.20
2022-11-15T14:41:33.607Z,0.93
2022-11-15T14:44:00.438Z,1.38
2022-11-15T14:46:33.601Z,1.13
2022-11-15T14:49:00.417Z,1.00
2022-11-15T14:51:33.728Z,0.98
2022-11-15T14:54:00.545Z,1.30
2022-11-15T14:56:27.270Z,1.00
2022-11-15T14:59:02.652Z,1.00
2022-11-15T15:01:29.577Z,0.90
2022-11-15T15:04:06.698Z,0.80
2022-11-15T15:06:39.741Z,0.98
2022-11-15T15:09:06.577Z,1.17
2022-11-15T15:11:39.682Z,1.10
2022-11-15T15:14:06.405Z,1.20
2022-11-15T15:16:39.648Z,1.15
2022-11-15T15:19:06.394Z,1.20
2022-11-15T15:21:39.677Z,1.33
2022-11-15T15:24:12.652Z,1.50
2022-11-15T15:26:40.078Z,1.30
2022-11-15T15:29:07.142Z,1.38
2022-11-15T15:31:40.707Z,1.10
2022-11-15T15:34:09.727Z,1.38
2022-11-15T15:36:47.892Z,1.30
2022-11-15T15:39:21.762Z,1.40
2022-11-15T15:41:51.241Z,1.08
2022-11-15T15:44:26.719Z,1.30
2022-11-15T15:46:59.783Z,1.50
2022-11-15T15:49:26.523Z,1.38
2022-11-15T15:51:53.481Z,1.25
2022-11-15T15:54:26.745Z,1.20
2022-11-15T15:56:56.172Z,1.50
2022-11-15T15:59:29.723Z,1.17
2022-11-15T16:01:59.007Z,1.27
2022-11-15T16:04:33.770Z,1.20
2022-11-15T16:07:23.214Z,1.35
2022-11-15T16:10:09.737Z,1.50
2022-11-15T16:12:42.890Z,1.30
2022-11-15T16:15:16.753Z,1.50
2022-11-15T16:17:53.655Z,1.13
2022-11-15T16:20:44.758Z,1.30
2022-11-15T16:23:23.918Z,1.00
2022-11-15T16:25:53.109Z,0.90
2022-11-15T16:28:36.019Z,1.23
2022-11-15T16:31:11.674Z,1.70
2022-11-15T16:33:45.782Z,1.30
2022-11-15T16:36:29.470Z,1.00
2022-11-15T16:39:03.920Z,1.20
2022-11-15T16:41:31.094Z,1.80
2022-11-15T16:43:57.880Z,1.33
2022-11-15T16:46:33.959Z,1.17
2022-11-15T16:49:01.154Z,1.33
2022-11-15T16:51:27.876Z,1.30
2022-11-15T16:54:00.789Z,1.65
2022-11-15T16:56:29.547Z,1.65
2022-11-15T16:59:06.934Z,1.83
2022-11-15T17:01:46.820Z,1.90
2022-11-15T17:04:20.902Z,1.67
2022-11-15T17:06:48.740Z,1.35
2022-11-15T17:09:27.834Z,1.73
2022-11-15T17:11:54.746Z,1.60
2022-11-15T17:14:27.955Z,2.00
2022-11-15T17:16:57.935Z,2.45
2022-11-15T17:19:24.803Z,2.05
2022-11-15T17:21:57.891Z,1.90
2022-11-15T17:24:31.029Z,1.95
2022-11-15T17:27:00.401Z,1.90
2022-11-15T17:29:27.141Z,2.00
2022-11-15T17:32:00.862Z,2.25
2022-11-15T17:34:27.616Z,2.08
2022-11-15T17:37:00.998Z,1.90
2022-11-15T17:39:27.796Z,2.42
2022-11-15T17:41:54.860Z,2.08
2022-11-15T17:44:28.008Z,2.17
2022-11-15T17:46:54.960Z,2.47
2022-11-15T17:49:21.721Z,2.38
2022-11-15T17:51:54.874Z,2.63
2022-11-15T17:54:21.730Z,2.58
2022-11-15T17:56:48.503Z,2.40
2022-11-15T17:59:22.049Z,2.30
2022-11-15T18:01:48.877Z,2.22
2022-11-15T18:04:15.690Z,2.50
2022-11-15T18:06:50.109Z,2.50
2022-11-15T18:09:16.953Z,3.20
2022-11-15T18:11:44.790Z,2.88
2022-11-15T18:14:21.945Z,3.10
2022-11-15T18:16:48.921Z,3.17
2022-11-15T18:19:15.761Z,3.13
2022-11-15T18:22:03.932Z,3.67
2022-11-15T18:24:33.562Z,3.67
2022-11-15T18:27:08.996Z,4.05
2022-11-15T18:29:37.776Z,4.93
2022-11-15T18:32:17.008Z,4.03
2022-11-15T18:34:43.765Z,3.92
2022-11-15T18:37:16.952Z,4.07
2022-11-15T18:39:43.671Z,3.63
2022-11-15T18:42:20.074Z,4.32
2022-11-15T18:44:46.821Z,4.28
2022-11-15T18:47:13.589Z,3.72
2022-11-15T18:49:47.009Z,4.50
2022-11-15T18:52:13.800Z,4.35
2022-11-15T18:54:40.627Z,4.13
2022-11-15T18:57:14.139Z,3.80
2022-11-15T18:59:40.936Z,4.35
2022-11-15T19:02:11.753Z,4.38
2022-11-15T19:04:45.019Z,4.57
2022-11-15T19:07:12.008Z,5.07
2022-11-15T19:09:39.000Z,4.95
2022-11-15T19:12:13.134Z,4.32
2022-11-15T19:14:40.000Z,4.45
2022-11-15T19:17:06.895Z,4.45
2022-11-15T19:19:40.153Z,4.07
2022-11-15T19:22:06.971Z,4.63
2022-11-15T19:24:33.801Z,3.90
2022-11-15T19:27:07.173Z,4.68
2022-11-15T19:29:34.003Z,4.75
2022-11-15T19:32:00.962Z,4.78
2022-11-15T19:34:34.200Z,4.95
2022-11-15T19:37:01.135Z,5.32
2022-11-15T19:39:27.933Z,5.35
2022-11-15T19:42:01.138Z,5.07
2022-11-15T19:44:35.137Z,5.15
2022-11-15T19:47:02.022Z,6.05
2022-11-15T19:49:35.073Z,5.43
2022-11-15T19:52:08.226Z,6.70
2022-11-15T19:54:34.979Z,5.75
2022-11-15T19:57:02.082Z,5.68
2022-11-15T19:59:35.251Z,5.97
2022-11-15T20:02:02.094Z,5.30
2022-11-15T20:04:28.927Z,6.82
2022-11-15T20:07:02.297Z,5.50
2022-11-15T20:09:29.521Z,7.65
2022-11-15T20:12:06.091Z,6.93
2022-11-15T20:14:39.144Z,6.95
2022-11-15T20:17:06.054Z,6.50
2022-11-15T20:19:39.182Z,7.05
2022-11-15T20:22:12.325Z,6.30
2022-11-15T20:24:39.125Z,6.18
2022-11-15T20:27:06.396Z,5.75
2022-11-15T20:29:43.936Z,6.53
2022-11-15T20:32:20.180Z,5.65
2022-11-15T20:34:54.264Z,6.50
2022-11-15T20:37:21.301Z,5.78
2022-11-15T20:39:48.305Z,5.28
2022-11-15T20:42:26.211Z,5.53
2022-11-15T20:44:53.227Z,5.15
2022-11-15T20:47:20.187Z,5.82
2022-11-15T20:49:53.270Z,5.72
2022-11-15T20:52:20.855Z,5.78
2022-11-15T20:54:47.756Z,6.70
2022-11-15T20:57:21.213Z,5.72
2022-11-15T20:59:48.180Z,6.00
2022-11-15T21:02:16.424Z,5.60
2022-11-15T21:04:50.214Z,5.22
2022-11-15T21:07:23.220Z,5.85
2022-11-15T21:10:15.241Z,6.35
2022-11-15T21:12:42.164Z,6.37
2022-11-15T21:15:09.414Z,6.65
2022-11-15T21:17:42.221Z,7.68
2022-11-15T21:20:09.993Z,8.10
2022-11-15T21:22:40.627Z,7.18
2022-11-15T21:25:14.217Z,6.85
2022-11-15T21:27:41.542Z,6.95
2022-11-15T21:30:15.387Z,7.35
2022-11-15T21:32:44.764Z,6.25
2022-11-15T21:35:11.738Z,7.25
2022-11-15T21:37:45.266Z,6.63
2022-11-15T21:40:12.629Z,6.45
2022-11-15T21:42:46.414Z,6.22
2022-11-15T21:45:13.396Z,7.05
2022-11-15T21:47:45.604Z,5.82
2022-11-15T21:50:19.261Z,6.32
2022-11-15T21:52:46.994Z,6.97
2022-11-15T21:55:13.745Z,7.18
2022-11-15T21:57:47.394Z,6.47
2022-11-15T22:00:33.301Z,6.35
2022-11-15T22:03:08.300Z,7.80
2022-11-15T22:05:41.387Z,8.50
2022-11-15T22:08:08.141Z,7.00
2022-11-15T22:10:34.940Z,7.20
2022-11-15T22:13:08.347Z,6.53
2022-11-15T22:15:41.416Z,6.30
2022-11-15T22:18:08.188Z,8.35
2022-11-15T22:20:44.443Z,6.28
2022-11-15T22:23:18.317Z,8.10
2022-11-15T22:25:45.274Z,7.93
2022-11-15T22:28:18.490Z,6.95
2022-11-15T22:30:48.285Z,9.98
2022-11-15T22:33:16.609Z,9.50
2022-11-15T22:35:50.470Z,8.32
2022-11-15T22:38:17.347Z,7.70
2022-11-15T22:40:46.532Z,7.88
2022-11-15T22:43:22.348Z,7.97
2022-11-15T22:45:59.532Z,8.45
2022-11-15T22:48:28.668Z,7.15
2022-11-15T22:50:56.095Z,6.63
2022-11-15T22:53:30.377Z,7.10
2022-11-15T22:56:01.927Z,7.53
2022-11-15T22:58:37.857Z,7.30
2022-11-15T23:01:06.204Z,8.40
2022-11-15T23:03:34.085Z,8.55
2022-11-15T23:06:14.360Z,7.13
2022-11-15T23:08:41.681Z,7.15
2022-11-15T23:11:36.416Z,7.57
2022-11-15T23:14:05.046Z,7.65
2022-11-15T23:16:34.656Z,6.40
2022-11-15T23:19:12.403Z,7.88
2022-11-15T23:22:02.110Z,7.10
2022-11-15T23:27:10.468Z,6.30
2022-11-15T23:30:04.518Z,6.15
2022-11-15T23:32:52.871Z,6.88
2022-11-15T23:35:26.517Z,6.20
2022-11-15T23:37:53.990Z,5.60
2022-11-15T23:40:20.771Z,6.47
2022-11-15T23:42:58.421Z,5.22
2022-11-15T23:45:25.218Z,6.30
2022-11-15T23:47:54.690Z,7.93
2022-11-15T23:50:31.587Z,7.70
2022-11-15T23:52:58.396Z,8.00
2022-11-15T23:55:25.925Z,8.45
2022-11-15T23:57:59.679Z,9.02
